createdAt,value
2023-01-17T00:00:16.585Z,2.08
2023-01-17T00:03:04.708Z,2.14
2023-01-17T00:06:09.791Z,2.13
2023-01-17T00:09:14.843Z,2.20
2023-01-17T00:12:05.514Z,2.37
2023-01-17T00:14:54.431Z,2.53
2023-01-17T00:17:40.554Z,2.57
2023-01-17T00:20:47.868Z,2.61
2023-01-17T00:23:52.907Z,2.56
2023-01-17T00:26:59.452Z,2.47
2023-01-17T00:29:45.612Z,2.35
2023-01-17T00:32:32.255Z,2.42
2023-01-17T00:35:24.619Z,2.27
2023-01-17T00:38:13.920Z,2.18
2023-01-17T00:41:05.603Z,2.18
2023-01-17T00:44:10.718Z,2.39
2023-01-17T00:47:15.949Z,2.41
2023-01-17T00:50:20.957Z,2.49
2023-01-17T00:53:26.362Z,2.50
2023-01-17T00:56:31.434Z,2.59
2023-01-17T00:59:36.577Z,2.51
2023-01-17T01:02:41.954Z,2.53
2023-01-17T01:05:47.096Z,2.47
2023-01-17T01:08:51.895Z,2.42
2023-01-17T01:11:57.082Z,2.18
2023-01-17T01:15:02.194Z,2.13
2023-01-17T01:18:07.258Z,1.98
2023-01-17T01:21:12.242Z,1.99
2023-01-17T01:24:17.348Z,1.78
2023-01-17T01:27:22.492Z,1.90
2023-01-17T01:30:27.841Z,1.91
2023-01-17T01:33:18.833Z,2.00
2023-01-17T01:36:07.912Z,2.08
2023-01-17T01:38:54.652Z,2.04
2023-01-17T01:41:40.963Z,2.18
2023-01-17T01:44:47.948Z,2.26
2023-01-17T01:47:38.593Z,2.20
2023-01-17T01:50:25.394Z,2.33
2023-01-17T01:53:12.510Z,2.40
2023-01-17T01:55:59.291Z,2.42
2023-01-17T01:58:50.512Z,2.35
2023-01-17T02:01:37.143Z,2.40
2023-01-17T02:04:25.452Z,2.48
2023-01-17T02:07:21.930Z,2.49
2023-01-17T02:10:09.738Z,2.57
2023-01-17T02:12:56.210Z,2.46
2023-01-17T02:15:57.047Z,2.55
2023-01-17T02:19:17.537Z,2.56
2023-01-17T02:22:41.353Z,2.60
2023-01-17T02:25:43.657Z,2.61
2023-01-17T02:28:51.796Z,2.62
2023-01-17T02:31:49.652Z,2.62
2023-01-17T02:35:00.438Z,2.46
2023-01-17T02:38:15.604Z,2.57
2023-01-17T02:41:09.202Z,2.50
2023-01-17T02:43:55.724Z,2.37
2023-01-17T02:46:55.955Z,2.54
2023-01-17T02:49:42.336Z,2.51
2023-01-17T02:52:49.700Z,2.32
2023-01-17T02:56:43.415Z,2.22
2023-01-17T03:00:01.053Z,2.30
2023-01-17T03:03:22.447Z,2.27
2023-01-17T03:06:16.536Z,2.17
2023-01-17T03:09:04.013Z,1.94
2023-01-17T03:11:50.864Z,2.24
2023-01-17T03:14:37.274Z,2.33
2023-01-17T03:17:26.191Z,2.27
2023-01-17T03:20:12.970Z,2.17
2023-01-17T03:22:59.411Z,1.93
2023-01-17T03:25:45.692Z,2.32
2023-01-17T03:28:32.281Z,2.34
2023-01-17T03:31:19.934Z,2.26
2023-01-17T03:34:06.406Z,2.47
2023-01-17T03:36:52.744Z,2.36
2023-01-17T03:39:39.300Z,2.43
2023-01-17T03:42:25.618Z,2.26
2023-01-17T03:45:12.005Z,2.48
2023-01-17T03:47:59.375Z,2.35
2023-01-17T03:50:45.705Z,2.26
2023-01-17T03:53:32.038Z,2.32
2023-01-17T03:56:19.892Z,2.26
2023-01-17T03:59:06.073Z,1.96
2023-01-17T04:01:52.725Z,1.89
2023-01-17T04:04:39.183Z,1.77
2023-01-17T04:07:25.708Z,1.57
2023-01-17T04:10:12.019Z,1.41
2023-01-17T04:12:58.237Z,1.47
2023-01-17T04:15:50.089Z,1.35
2023-01-17T04:18:36.510Z,1.47
2023-01-17T04:21:22.995Z,1.41
2023-01-17T04:24:09.192Z,1.62
2023-01-17T04:26:55.759Z,1.77
2023-01-17T04:29:42.017Z,1.64
2023-01-17T04:32:29.833Z,1.60
2023-01-17T04:35:16.575Z,1.76
2023-01-17T04:38:03.467Z,1.83
2023-01-17T04:40:50.896Z,2.00
2023-01-17T04:43:37.108Z,1.94
2023-01-17T04:46:23.932Z,1.81
2023-01-17T04:49:10.636Z,1.95
2023-01-17T04:51:56.897Z,1.85
2023-01-17T04:54:43.305Z,1.78
2023-01-17T04:57:30.018Z,1.40
2023-01-17T05:00:16.824Z,1.37
2023-01-17T05:03:03.192Z,1.09
2023-01-17T05:05:49.514Z,1.00
2023-01-17T05:08:35.618Z,0.45
2023-01-17T05:11:21.799Z,0.11
2023-01-17T05:14:10.117Z,-0.07
2023-01-17T05:16:57.777Z,-0.02
2023-01-17T05:19:44.454Z,-0.41
2023-01-17T05:22:30.708Z,-0.46
2023-01-17T05:25:17.137Z,-0.59
2023-01-17T05:28:03.869Z,-0.80
2023-01-17T05:30:50.550Z,-0.95
2023-01-17T05:33:37.076Z,-1.32
2023-01-17T05:36:23.243Z,-1.42
2023-01-17T05:39:09.540Z,-1.16
2023-01-17T05:41:55.540Z,-1.39
2023-01-17T05:44:42.398Z,-1.25
2023-01-17T05:47:28.837Z,-1.36
2023-01-17T05:50:21.399Z,-1.41
2023-01-17T05:53:13.253Z,-1.54
2023-01-17T05:55:59.546Z,-1.60
2023-01-17T05:58:46.166Z,-1.74
2023-01-17T06:01:32.469Z,-1.96
2023-01-17T06:04:18.908Z,-1.81
2023-01-17T06:07:05.195Z,-1.86
2023-01-17T06:09:51.388Z,-1.93
2023-01-17T06:12:37.670Z,-2.04
2023-01-17T06:15:24.065Z,-2.07
2023-01-17T06:18:13.610Z,-2.12
2023-01-17T06:21:00.094Z,-1.99
2023-01-17T06:23:46.318Z,-2.42
2023-01-17T06:26:32.739Z,-2.44
2023-01-17T06:29:18.810Z,-2.41
2023-01-17T06:32:05.421Z,-2.46
2023-01-17T06:34:51.608Z,-2.30
2023-01-17T06:37:38.048Z,-2.40
2023-01-17T06:40:25.623Z,-2.38
2023-01-17T06:43:11.952Z,-2.33
2023-01-17T06:45:58.093Z,-2.12
2023-01-17T06:48:44.858Z,-2.18
2023-01-17T06:51:31.243Z,-2.06
2023-01-17T06:54:18.819Z,-2.10
2023-01-17T06:57:05.205Z,-2.01
2023-01-17T06:59:51.752Z,-1.93
2023-01-17T07:02:38.155Z,-2.00
2023-01-17T07:05:24.522Z,-1.98
2023-01-17T07:08:10.594Z,-2.15
2023-01-17T07:11:06.296Z,-1.94
2023-01-17T07:13:52.576Z,-1.92
2023-01-17T07:16:38.684Z,-1.47
2023-01-17T07:19:25.514Z,-1.58
2023-01-17T07:22:12.042Z,-1.80
2023-01-17T07:24:58.684Z,-1.48
2023-01-17T07:27:45.083Z,-1.51
2023-01-17T07:30:31.619Z,-1.60
2023-01-17T07:33:17.978Z,-1.58
2023-01-17T07:36:09.196Z,-1.44
2023-01-17T07:38:55.893Z,-1.57
2023-01-17T07:41:42.931Z,-1.57
2023-01-17T07:44:31.599Z,-1.28
2023-01-17T07:47:18.186Z,-1.47
2023-01-17T07:50:05.507Z,-1.31
2023-01-17T07:52:52.209Z,-1.51
2023-01-17T07:55:38.505Z,-1.25
2023-01-17T07:58:25.063Z,-0.95
2023-01-17T08:01:13.711Z,-0.78
2023-01-17T08:04:00.167Z,-1.14
2023-01-17T08:06:48.676Z,-1.19
2023-01-17T08:09:35.143Z,-1.43
2023-01-17T08:12:21.383Z,-1.48
2023-01-17T08:15:08.567Z,-1.39
2023-01-17T08:17:57.467Z,-1.11
2023-01-17T08:20:45.034Z,-1.09
2023-01-17T08:23:31.552Z,-1.16
2023-01-17T08:26:23.438Z,-0.82
2023-01-17T08:29:09.716Z,-0.77
2023-01-17T08:31:55.866Z,-0.64
2023-01-17T08:34:42.403Z,-0.50
2023-01-17T08:37:28.838Z,-0.16
2023-01-17T08:40:17.131Z,-0.14
2023-01-17T08:43:03.865Z,0.08
2023-01-17T08:45:50.341Z,0.06
2023-01-17T08:48:36.949Z,-0.15
2023-01-17T08:51:26.352Z,0.30
2023-01-17T08:54:15.093Z,0.30
2023-01-17T08:57:03.282Z,0.40
2023-01-17T08:59:50.476Z,0.59
2023-01-17T09:02:36.906Z,0.52
2023-01-17T09:05:23.519Z,0.77
2023-01-17T09:08:09.776Z,1.20
2023-01-17T09:10:56.349Z,1.20
2023-01-17T09:13:43.279Z,1.46
2023-01-17T09:16:30.379Z,1.46
2023-01-17T09:19:17.060Z,1.93
2023-01-17T09:22:05.390Z,1.88
2023-01-17T09:24:51.719Z,2.42
2023-01-17T09:27:38.404Z,2.12
2023-01-17T09:30:25.096Z,2.34
2023-01-17T09:33:11.359Z,2.34
2023-01-17T09:36:01.329Z,2.22
2023-01-17T09:38:48.149Z,2.49
2023-01-17T09:41:56.999Z,2.41
2023-01-17T09:44:54.111Z,2.55
2023-01-17T09:47:44.220Z,2.57
2023-01-17T09:50:39.337Z,2.48
2023-01-17T09:53:28.000Z,2.29
2023-01-17T09:56:22.620Z,2.62
2023-01-17T09:59:19.053Z,2.56
2023-01-17T10:02:08.756Z,2.59
2023-01-17T10:05:26.501Z,2.74
2023-01-17T10:08:40.546Z,2.73
2023-01-17T10:11:43.115Z,2.49
2023-01-17T10:14:56.443Z,2.74
2023-01-17T10:17:49.004Z,2.68
2023-01-17T10:21:12.437Z,2.55
2023-01-17T10:24:33.128Z,2.89
2023-01-17T10:27:24.961Z,2.83
2023-01-17T10:30:31.729Z,2.85
2023-01-17T10:33:28.626Z,2.91
2023-01-17T10:36:20.583Z,3.02
2023-01-17T10:39:29.311Z,3.30
2023-01-17T10:42:50.735Z,3.50
2023-01-17T10:45:41.325Z,3.59
2023-01-17T10:48:41.588Z,3.43
2023-01-17T10:51:51.488Z,3.57
2023-01-17T10:55:04.870Z,3.92
2023-01-17T10:57:52.807Z,3.93
2023-01-17T11:00:51.900Z,4.04
2023-01-17T11:03:39.585Z,4.06
2023-01-17T11:06:27.570Z,3.87
2023-01-17T11:09:14.874Z,3.75
2023-01-17T11:12:01.217Z,3.54
2023-01-17T11:15:04.160Z,3.58
2023-01-17T11:18:02.532Z,3.60
2023-01-17T11:20:49.848Z,3.63
2023-01-17T11:23:36.524Z,3.62
2023-01-17T11:26:27.328Z,3.61
2023-01-17T11:29:26.627Z,3.67
2023-01-17T11:32:32.091Z,3.52
2023-01-17T11:35:31.671Z,3.56
2023-01-17T11:38:20.502Z,3.71
2023-01-17T11:41:22.123Z,3.84
2023-01-17T11:44:32.207Z,4.22
2023-01-17T11:47:18.983Z,4.07
2023-01-17T11:50:23.347Z,4.47
2023-01-17T11:53:32.107Z,4.68
2023-01-17T11:56:35.789Z,4.83
2023-01-17T11:59:22.154Z,4.96
2023-01-17T12:02:59.780Z,5.17
2023-01-17T12:05:58.711Z,5.11
2023-01-17T12:08:54.382Z,5.21
2023-01-17T12:12:08.865Z,5.22
2023-01-17T12:15:19.757Z,5.34
2023-01-17T12:18:35.154Z,5.52
2023-01-17T12:21:37.531Z,5.62
2023-01-17T12:24:26.751Z,5.56
2023-01-17T12:27:36.973Z,5.09
2023-01-17T12:31:01.176Z,5.08
2023-01-17T12:33:53.587Z,4.87
2023-01-17T12:36:54.756Z,4.60
2023-01-17T12:39:46.485Z,4.37
2023-01-17T12:42:43.130Z,4.62
2023-01-17T12:45:36.345Z,4.44
2023-01-17T12:48:29.218Z,4.36
2023-01-17T12:51:29.566Z,4.46
2023-01-17T12:54:21.550Z,4.74
2023-01-17T12:57:25.189Z,4.81
2023-01-17T13:00:21.328Z,4.52
2023-01-17T13:03:31.497Z,4.62
2023-01-17T13:06:58.487Z,4.82
2023-01-17T13:09:51.728Z,4.68
2023-01-17T13:12:39.161Z,4.66
2023-01-17T13:15:32.955Z,4.38
2023-01-17T13:18:25.933Z,4.41
2023-01-17T13:21:15.238Z,4.51
2023-01-17T13:24:31.073Z,4.21
2023-01-17T13:27:29.779Z,4.35
2023-01-17T13:30:22.323Z,4.35
2023-01-17T13:33:20.693Z,4.32
2023-01-17T13:36:19.044Z,4.24
2023-01-17T13:39:43.203Z,4.40
2023-01-17T13:42:56.015Z,4.24
2023-01-17T13:45:53.969Z,4.03
2023-01-17T13:48:40.944Z,4.42
2023-01-17T13:52:02.210Z,4.43
2023-01-17T13:54:51.926Z,4.49
2023-01-17T13:57:43.489Z,4.43
2023-01-17T14:00:49.307Z,4.34
2023-01-17T14:03:46.112Z,4.35
2023-01-17T14:06:36.089Z,4.32
2023-01-17T14:09:30.886Z,4.38
2023-01-17T14:12:21.136Z,4.35
2023-01-17T14:15:21.031Z,4.19
2023-01-17T14:18:37.528Z,4.36
2023-01-17T14:21:33.643Z,4.06
2023-01-17T14:24:20.575Z,4.14
2023-01-17T14:27:23.328Z,4.47
2023-01-17T14:30:36.485Z,4.23
2023-01-17T14:33:28.653Z,4.18
2023-01-17T14:36:24.970Z,4.31
2023-01-17T14:39:22.499Z,4.09
2023-01-17T14:42:13.641Z,4.14
2023-01-17T14:45:08.818Z,4.17
2023-01-17T14:47:58.608Z,4.05
2023-01-17T14:50:46.735Z,3.82
2023-01-17T14:53:33.899Z,3.72
2023-01-17T14:56:20.180Z,3.84
2023-01-17T14:59:14.791Z,4.00
2023-01-17T15:02:08.166Z,3.62
2023-01-17T15:04:55.221Z,3.56
2023-01-17T15:07:45.716Z,3.47
2023-01-17T15:10:33.577Z,3.35
2023-01-17T15:13:42.800Z,3.65
2023-01-17T15:16:38.037Z,3.38
2023-01-17T15:19:24.410Z,3.49
2023-01-17T15:22:12.270Z,3.42
2023-01-17T15:24:59.626Z,3.30
2023-01-17T15:27:45.892Z,3.17
2023-01-17T15:30:32.530Z,3.18
2023-01-17T15:33:20.988Z,3.21
2023-01-17T15:36:13.174Z,3.12
2023-01-17T15:39:21.967Z,2.88
2023-01-17T15:42:27.989Z,3.06
2023-01-17T15:45:22.247Z,2.76
2023-01-17T15:48:39.165Z,2.84
2023-01-17T15:51:36.300Z,2.65
2023-01-17T15:54:29.080Z,2.61
2023-01-17T15:57:24.997Z,2.28
2023-01-17T16:00:19.066Z,2.57
2023-01-17T16:03:30.780Z,2.41
2023-01-17T16:06:45.359Z,2.60
2023-01-17T16:09:41.843Z,2.47
2023-01-17T16:12:28.496Z,2.28
2023-01-17T16:15:18.189Z,2.16
2023-01-17T16:18:15.198Z,2.53
2023-01-17T16:21:25.009Z,2.31
2023-01-17T16:24:11.463Z,2.40
2023-01-17T16:26:58.160Z,2.40
2023-01-17T16:29:44.758Z,2.34
2023-01-17T16:32:32.119Z,2.08
2023-01-17T16:35:24.041Z,2.65
2023-01-17T16:38:12.332Z,2.72
2023-01-17T16:40:58.523Z,2.57
2023-01-17T16:43:44.939Z,2.37
2023-01-17T16:46:31.362Z,2.57
2023-01-17T16:49:18.571Z,2.54
2023-01-17T16:52:04.811Z,2.42
2023-01-17T16:54:51.143Z,2.40
2023-01-17T16:57:37.995Z,2.46
2023-01-17T17:00:24.896Z,2.27
2023-01-17T17:03:19.016Z,2.02
2023-01-17T17:06:05.359Z,2.39
2023-01-17T17:08:51.675Z,2.54
2023-01-17T17:11:38.292Z,2.34
2023-01-17T17:14:24.689Z,2.34
2023-01-17T17:17:11.200Z,2.12
2023-01-17T17:19:57.658Z,1.94
2023-01-17T17:22:50.072Z,2.29
2023-01-17T17:25:37.147Z,2.07
2023-01-17T17:28:23.759Z,2.08
2023-01-17T17:31:12.847Z,2.08
2023-01-17T17:34:00.889Z,2.05
2023-01-17T17:36:47.026Z,2.07
2023-01-17T17:39:33.828Z,1.84
2023-01-17T17:42:20.636Z,1.80
2023-01-17T17:45:07.375Z,1.76
2023-01-17T17:47:54.295Z,2.03
2023-01-17T17:50:41.476Z,2.12
2023-01-17T17:53:28.128Z,1.99
2023-01-17T17:56:14.487Z,1.95
2023-01-17T18:03:30.189Z,2.53
2023-01-17T18:06:18.274Z,2.21
2023-01-17T18:09:09.108Z,2.57
2023-01-17T18:11:55.793Z,2.16
2023-01-17T18:14:42.010Z,2.53
2023-01-17T18:17:28.642Z,2.56
2023-01-17T18:20:15.456Z,2.37
2023-01-17T18:23:01.967Z,2.48
2023-01-17T18:25:49.182Z,2.39
2023-01-17T18:28:35.502Z,2.15
2023-01-17T18:31:25.012Z,1.90
2023-01-17T18:34:17.544Z,1.99
2023-01-17T18:37:04.231Z,1.78
2023-01-17T18:39:50.462Z,1.71
2023-01-17T18:42:36.884Z,1.73
2023-01-17T18:45:23.095Z,1.59
2023-01-17T18:48:09.377Z,1.59
2023-01-17T18:50:57.379Z,1.61
2023-01-17T18:53:44.812Z,1.52
2023-01-17T18:56:34.115Z,1.42
2023-01-17T18:59:21.382Z,1.13
2023-01-17T19:02:09.113Z,1.12
2023-01-17T19:04:55.963Z,1.00
2023-01-17T19:07:42.635Z,1.07
2023-01-17T19:10:28.871Z,1.20
2023-01-17T19:13:15.399Z,1.11
2023-01-17T19:16:03.687Z,0.71
2023-01-17T19:18:51.174Z,1.05
2023-01-17T19:21:37.586Z,0.88
2023-01-17T19:24:23.915Z,0.74
2023-01-17T19:27:10.945Z,0.73
2023-01-17T19:29:57.535Z,0.78
2023-01-17T19:32:44.232Z,0.72
2023-01-17T19:35:30.361Z,0.71
2023-01-17T19:38:16.683Z,0.51
2023-01-17T19:41:10.049Z,0.64
2023-01-17T19:43:58.950Z,0.67
2023-01-17T19:46:46.102Z,0.56
2023-01-17T19:49:33.982Z,0.51
2023-01-17T19:52:22.165Z,0.63
2023-01-17T19:55:09.875Z,0.37
2023-01-17T19:57:56.665Z,0.30
2023-01-17T20:00:46.791Z,0.46
2023-01-17T20:03:33.292Z,0.53
2023-01-17T20:06:21.893Z,0.23
2023-01-17T20:09:07.962Z,0.52
2023-01-17T20:11:55.378Z,0.57
2023-01-17T20:14:42.043Z,0.59
2023-01-17T20:17:28.611Z,0.55
2023-01-17T20:20:15.837Z,0.53
2023-01-17T20:23:05.429Z,0.47
2023-01-17T20:25:58.815Z,0.61
2023-01-17T20:28:47.163Z,0.58
2023-01-17T20:31:37.915Z,0.32
2023-01-17T20:34:25.772Z,0.39
2023-01-17T20:37:11.957Z,0.45
2023-01-17T20:39:58.160Z,0.30
2023-01-17T20:42:44.830Z,0.32
2023-01-17T20:45:31.787Z,0.15
2023-01-17T20:48:19.785Z,0.36
2023-01-17T20:51:10.782Z,0.38
2023-01-17T20:54:04.123Z,0.26
2023-01-17T20:56:51.310Z,0.29
2023-01-17T20:59:37.685Z,0.31
2023-01-17T21:02:23.959Z,0.30
2023-01-17T21:05:12.711Z,0.36
2023-01-17T21:07:59.339Z,0.72
2023-01-17T21:10:49.665Z,0.56
2023-01-17T21:13:36.561Z,0.50
2023-01-17T21:16:24.455Z,0.46
2023-01-17T21:19:14.151Z,0.41
2023-01-17T21:22:00.383Z,0.37
2023-01-17T21:24:46.598Z,0.36
2023-01-17T21:27:33.158Z,0.24
2023-01-17T21:30:19.695Z,0.13
2023-01-17T21:33:06.004Z,0.21
2023-01-17T21:35:52.858Z,-0.11
2023-01-17T21:38:39.029Z,0.22
2023-01-17T21:41:28.596Z,0.31
2023-01-17T21:44:20.621Z,0.04
2023-01-17T21:47:07.029Z,0.12
2023-01-17T21:49:53.453Z,-0.09
2023-01-17T21:52:39.776Z,0.33
2023-01-17T21:55:44.621Z,0.02
2023-01-17T21:58:45.978Z,0.35
2023-01-17T22:01:33.251Z,0.28
2023-01-17T22:04:20.058Z,-0.02
2023-01-17T22:07:06.092Z,0.31
2023-01-17T22:09:54.875Z,0.32
2023-01-17T22:12:41.636Z,0.36
2023-01-17T22:15:28.125Z,0.01
2023-01-17T22:18:15.198Z,0.05
2023-01-17T22:21:05.683Z,0.10
2023-01-17T22:23:54.716Z,0.21
2023-01-17T22:26:42.013Z,0.05
2023-01-17T22:29:28.213Z,0.15
2023-01-17T22:32:14.457Z,-0.01
2023-01-17T22:35:00.950Z,0.06
2023-01-17T22:37:47.501Z,0.27
2023-01-17T22:40:38.064Z,0.41
2023-01-17T22:43:30.188Z,0.36
2023-01-17T22:46:19.704Z,-0.01
2023-01-17T22:49:08.643Z,0.16
2023-01-17T22:51:54.975Z,-0.06
2023-01-17T22:54:41.356Z,0.14
2023-01-17T22:57:27.594Z,-0.05
2023-01-17T23:00:14.871Z,0.03
2023-01-17T23:03:01.400Z,-0.15
2023-01-17T23:05:48.161Z,-0.42
2023-01-17T23:08:34.594Z,-0.39
2023-01-17T23:11:42.320Z,-0.14
2023-01-17T23:14:52.992Z,-0.23
2023-01-17T23:17:58.024Z,-0.30
2023-01-17T23:20:44.150Z,-0.27
2023-01-17T23:23:31.767Z,-0.22
2023-01-17T23:26:18.305Z,-0.08
2023-01-17T23:29:04.516Z,-0.34
2023-01-17T23:31:50.771Z,-0.31
2023-01-17T23:34:37.355Z,-0.27
2023-01-17T23:37:47.653Z,-0.15
2023-01-17T23:40:36.175Z,-0.14
2023-01-17T23:43:25.344Z,-0.31
2023-01-17T23:46:12.593Z,-0.01
2023-01-17T23:48:59.147Z,-0.08
2023-01-17T23:51:45.399Z,-0.05
2023-01-17T23:54:32.042Z,-0.01
2023-01-17T23:57:19.745Z,-0.15
